• Join FlightAware (Why Join?)
  • Login
  • US Flag 
03:57AM EDT


 

Airport Tracker/Info


-or-


 

Live Flight TrackerFlight Track Log ✈ UAL4191 ✈ 02-May-2013 ✈ KBTV - KEWR

Flight Track Log - Related Links

Times and Time Zones

All times are in EDT time to prevent confusion due to time zone crossing. See the UAL4191 flight status page for this flight to view local times or setup timezone preferences in your user account.

Time Position Orientation Groundspeed Altitude Reporting Facility
EDT Latitude Longitude Course Direction KTS MPH feet Rate Location/Type
02:21PM 44.5025 -73.2114 196° South 201 231 2,600  Level Boston Center
02:22PM 44.4625 -73.2633 223° Southwest 153 176 4,800 2,580 Climbing Boston Center
02:23PM 44.3936 -73.2797 190° South 236 272 7,800 2,820 Climbing Boston Center
02:24PM 44.2481 -73.2208 196° South  Level FlightAware Approximate
02:24PM 44.3186 -73.3019 192° South 262 302 10,500  Level Boston Center
02:25PM 44.1787 -73.2553 190° South  Level FlightAware Approximate
02:25PM 44.2308 -73.3267 191° South 306 352 11,800  Level Boston Center
02:26PM 44.1051 -73.2737 190° South  Level FlightAware Approximate
02:26PM 44.1286 -73.3569 192° South 359 413 12,800  Level Boston Center
02:27PM 44.0323 -73.2971 196° South  Level FlightAware Approximate
02:27PM 44.0178 -73.3869 191° South 395 455 14,000  Level Boston Center
02:28PM 43.9050 -73.4197 192° South 413 475 15,900 1,800 Climbing Boston Center
02:29PM 43.7944 -73.4497 191° South 413 475 17,700 1,440 Climbing Boston Center
02:30PM 43.6794 -73.4822 192° South 418 481 18,800 1,500 Climbing Boston Center
02:31PM 43.5542 -73.5144 191° South 418 481 20,800 1,560 Climbing Boston Center
02:32PM 43.4392 -73.5467 192° South 423 487 22,000 600 Climbing Boston Center
02:33PM 43.3158 -73.5786 191° South 433 498 22,000  Level Boston Center
02:34PM 43.1864 -73.6161 192° South 457 526 22,000 -480 Level Boston Center
02:35PM 43.0647 -73.6678 197° South 462 532 21,100 -1,380 Descending Boston Center
02:36PM 42.9456 -73.7222 198° South 467 537 19,300 -1,500 Descending Boston Center
02:37PM 42.8428 -73.7653 197° South 448 516 18,100 -1,080 Descending Boston Center
02:38PM 42.7214 -73.8219 199° South 426 490 17,200 -1,080 Descending Boston Center
02:39PM 42.6103 -73.8703 198° South 426 490 16,000 -600 Descending Boston Center
02:40PM 42.4972 -73.9156 196° South 426 490 16,000  Level Boston Center
02:41PM 42.3861 -73.9664 199° South 426 490 16,000  Level Boston Center
02:42PM 42.2747 -74.0142 198° South 426 490 16,000  Level Boston Center
02:43PM 42.1658 -74.0647 199° South 426 490 16,000 -240 Level Boston Center
02:44PM 42.0544 -74.1150 199° South 426 490 15,600 -900 Descending Boston Center
02:45PM 41.9581 -74.1569 198° South 426 490 14,200 -1,800 Descending Boston Center
02:46PM 41.8447 -74.2042 197° South 400 460 12,100 -1,800 Descending Boston Center
02:47PM 41.7669 -74.2408 199° South 361 415 10,700 -1,500 Descending Boston Center
02:48PM 41.6769 -74.2772 197° South 320 368 9,100 -1,620 Descending Boston Center
02:49PM 41.6056 -74.3086 198° South 303 349 7,500 -1,080 Descending Boston Center
02:50PM 41.5236 -74.3450 198° South 289 333 7,000 -180 Descending Boston Center
02:52PM 41.3833 -74.4000 196° South 280 322 7,100 -120 Climbing New York TRACON
02:53PM 41.3167 -74.3667 159° South 275 316 6,700 -540 Descending New York TRACON
02:54PM 41.2500 -74.3167 151° Southeast 262 302 6,100 -780 Descending New York TRACON
02:56PM 41.1667 -74.2667 156° South 260 299 5,100 -540 Descending New York TRACON
02:56PM 41.1167 -74.2333 153° Southeast 259 298 5,100 -60 Level New York TRACON
02:57PM 41.0500 -74.1833 151° Southeast 263 303 5,000 -540 Descending New York TRACON
02:58PM 40.9833 -74.1500 159° South 262 302 4,100 -600 Descending New York TRACON
02:59PM 40.9167 -74.1167 159° South 251 289 3,800 -600 Descending New York TRACON
03:00PM 40.8500 -74.1000 169° South 241 277 2,900 -840 Descending New York TRACON
03:01PM 40.7833 -74.1000 180° South 217 250 2,200 -720 Descending New York TRACON